sensor_id;sensor_type;location;lat;lon;timestamp;P1;durP1;ratioP1;P2;durP2;ratioP2
16199;SDS011;8207;52.494;4.654;2024-01-27T00:02:12;5.47;;;1.60;;
16199;SDS011;8207;52.494;4.654;2024-01-27T00:04:37;4.72;;;1.23;;
16199;SDS011;8207;52.494;4.654;2024-01-27T00:07:02;5.30;;;1.30;;
16199;SDS011;8207;52.494;4.654;2024-01-27T00:09:28;6.00;;;1.60;;
16199;SDS011;8207;52.494;4.654;2024-01-27T00:11:53;5.65;;;1.60;;
16199;SDS011;8207;52.494;4.654;2024-01-27T00:14:18;5.93;;;1.60;;
16199;SDS011;8207;52.494;4.654;2024-01-27T00:16:43;4.63;;;1.53;;
16199;SDS011;8207;52.494;4.654;2024-01-27T00:19:09;5.10;;;1.43;;
16199;SDS011;8207;52.494;4.654;2024-01-27T00:21:34;4.40;;;1.43;;
16199;SDS011;8207;52.494;4.654;2024-01-27T00:23:59;5.73;;;1.30;;
16199;SDS011;8207;52.494;4.654;2024-01-27T00:26:28;4.00;;;1.40;;
16199;SDS011;8207;52.494;4.654;2024-01-27T00:28:53;5.33;;;1.50;;
16199;SDS011;8207;52.494;4.654;2024-01-27T00:31:18;4.70;;;1.27;;
16199;SDS011;8207;52.494;4.654;2024-01-27T00:33:44;6.43;;;1.60;;
16199;SDS011;8207;52.494;4.654;2024-01-27T00:36:09;4.25;;;1.23;;
16199;SDS011;8207;52.494;4.654;2024-01-27T00:38:34;5.88;;;1.50;;
16199;SDS011;8207;52.494;4.654;2024-01-27T00:40:59;3.53;;;1.33;;
16199;SDS011;8207;52.494;4.654;2024-01-27T00:43:24;4.13;;;1.58;;
16199;SDS011;8207;52.494;4.654;2024-01-27T00:45:50;3.67;;;1.33;;
16199;SDS011;8207;52.494;4.654;2024-01-27T00:48:15;5.23;;;1.50;;
16199;SDS011;8207;52.494;4.654;2024-01-27T00:50:40;4.43;;;1.48;;
16199;SDS011;8207;52.494;4.654;2024-01-27T00:53:06;5.65;;;1.48;;
16199;SDS011;8207;52.494;4.654;2024-01-27T00:55:31;4.97;;;1.50;;
16199;SDS011;8207;52.494;4.654;2024-01-27T00:57:56;4.07;;;1.43;;
16199;SDS011;8207;52.494;4.654;2024-01-27T01:00:21;5.50;;;1.60;;
16199;SDS011;8207;52.494;4.654;2024-01-27T01:02:47;5.17;;;1.47;;
16199;SDS011;8207;52.494;4.654;2024-01-27T01:05:12;5.13;;;1.70;;
16199;SDS011;8207;52.494;4.654;2024-01-27T01:07:37;5.00;;;1.40;;
16199;SDS011;8207;52.494;4.654;2024-01-27T01:10:03;4.90;;;1.80;;
16199;SDS011;8207;52.494;4.654;2024-01-27T01:12:29;4.63;;;1.48;;
16199;SDS011;8207;52.494;4.654;2024-01-27T01:14:54;5.83;;;1.60;;
16199;SDS011;8207;52.494;4.654;2024-01-27T01:17:19;4.70;;;1.40;;
16199;SDS011;8207;52.494;4.654;2024-01-27T01:19:44;4.40;;;1.40;;
16199;SDS011;8207;52.494;4.654;2024-01-27T01:22:10;5.03;;;1.40;;
16199;SDS011;8207;52.494;4.654;2024-01-27T01:24:35;4.80;;;1.40;;
16199;SDS011;8207;52.494;4.654;2024-01-27T01:27:00;6.13;;;1.70;;
16199;SDS011;8207;52.494;4.654;2024-01-27T01:29:25;5.00;;;1.50;;
16199;SDS011;8207;52.494;4.654;2024-01-27T01:31:51;4.55;;;1.30;;
16199;SDS011;8207;52.494;4.654;2024-01-27T01:34:16;6.43;;;1.58;;
16199;SDS011;8207;52.494;4.654;2024-01-27T01:36:41;5.10;;;1.50;;
16199;SDS011;8207;52.494;4.654;2024-01-27T01:39:06;4.78;;;1.48;;
16199;SDS011;8207;52.494;4.654;2024-01-27T01:41:32;6.95;;;1.60;;
16199;SDS011;8207;52.494;4.654;2024-01-27T01:43:57;4.53;;;1.40;;
16199;SDS011;8207;52.494;4.654;2024-01-27T01:46:22;5.05;;;1.50;;
16199;SDS011;8207;52.494;4.654;2024-01-27T01:48:49;4.43;;;1.30;;
16199;SDS011;8207;52.494;4.654;2024-01-27T01:51:14;5.53;;;1.80;;
16199;SDS011;8207;52.494;4.654;2024-01-27T01:53:39;5.40;;;1.52;;
16199;SDS011;8207;52.494;4.654;2024-01-27T01:56:05;5.10;;;1.65;;
16199;SDS011;8207;52.494;4.654;2024-01-27T01:58:30;5.20;;;1.35;;
16199;SDS011;8207;52.494;4.654;2024-01-27T02:01:02;5.13;;;1.40;;
16199;SDS011;8207;52.494;4.654;2024-01-27T02:03:27;6.18;;;1.48;;
16199;SDS011;8207;52.494;4.654;2024-01-27T02:05:52;4.38;;;1.65;;
16199;SDS011;8207;52.494;4.654;2024-01-27T02:08:17;4.65;;;1.40;;
16199;SDS011;8207;52.494;4.654;2024-01-27T02:10:43;5.47;;;1.53;;
16199;SDS011;8207;52.494;4.654;2024-01-27T02:13:15;5.20;;;1.60;;
16199;SDS011;8207;52.494;4.654;2024-01-27T02:15:42;5.47;;;1.70;;
16199;SDS011;8207;52.494;4.654;2024-01-27T02:18:07;4.17;;;1.30;;
16199;SDS011;8207;52.494;4.654;2024-01-27T02:20:33;5.25;;;1.40;;
16199;SDS011;8207;52.494;4.654;2024-01-27T02:22:58;4.20;;;1.25;;
16199;SDS011;8207;52.494;4.654;2024-01-27T02:25:23;6.67;;;1.50;;
16199;SDS011;8207;52.494;4.654;2024-01-27T02:27:48;4.10;;;1.63;;
16199;SDS011;8207;52.494;4.654;2024-01-27T02:30:14;4.25;;;1.25;;
16199;SDS011;8207;52.494;4.654;2024-01-27T02:32:39;5.13;;;1.47;;
16199;SDS011;8207;52.494;4.654;2024-01-27T02:35:04;4.75;;;1.45;;
16199;SDS011;8207;52.494;4.654;2024-01-27T02:37:30;5.00;;;1.33;;
16199;SDS011;8207;52.494;4.654;2024-01-27T02:39:55;6.60;;;1.53;;
16199;SDS011;8207;52.494;4.654;2024-01-27T02:42:20;3.73;;;1.27;;
16199;SDS011;8207;52.494;4.654;2024-01-27T02:44:45;4.73;;;1.40;;
16199;SDS011;8207;52.494;4.654;2024-01-27T02:47:10;5.10;;;1.47;;
16199;SDS011;8207;52.494;4.654;2024-01-27T02:49:35;5.20;;;1.93;;
16199;SDS011;8207;52.494;4.654;2024-01-27T02:52:01;3.53;;;1.30;;
16199;SDS011;8207;52.494;4.654;2024-01-27T02:54:26;5.72;;;1.40;;
16199;SDS011;8207;52.494;4.654;2024-01-27T02:56:52;4.95;;;1.45;;
16199;SDS011;8207;52.494;4.654;2024-01-27T02:59:17;4.20;;;1.30;;
16199;SDS011;8207;52.494;4.654;2024-01-27T03:01:42;5.17;;;1.43;;
16199;SDS011;8207;52.494;4.654;2024-01-27T03:04:07;4.17;;;1.60;;
16199;SDS011;8207;52.494;4.654;2024-01-27T03:06:33;5.20;;;1.40;;
16199;SDS011;8207;52.494;4.654;2024-01-27T03:08:58;3.95;;;1.30;;
16199;SDS011;8207;52.494;4.654;2024-01-27T03:11:23;5.20;;;1.47;;
16199;SDS011;8207;52.494;4.654;2024-01-27T03:13:49;4.88;;;1.50;;
16199;SDS011;8207;52.494;4.654;2024-01-27T03:16:14;5.50;;;1.37;;
16199;SDS011;8207;52.494;4.654;2024-01-27T03:18:41;3.88;;;1.35;;
16199;SDS011;8207;52.494;4.654;2024-01-27T03:21:06;5.03;;;1.52;;
16199;SDS011;8207;52.494;4.654;2024-01-27T03:23:33;4.47;;;1.25;;
16199;SDS011;8207;52.494;4.654;2024-01-27T03:25:58;6.27;;;1.70;;
16199;SDS011;8207;52.494;4.654;2024-01-27T03:28:23;4.43;;;1.20;;
16199;SDS011;8207;52.494;4.654;2024-01-27T03:30:48;4.33;;;1.40;;
16199;SDS011;8207;52.494;4.654;2024-01-27T03:33:14;5.10;;;1.33;;
16199;SDS011;8207;52.494;4.654;2024-01-27T03:35:39;5.18;;;1.40;;
16199;SDS011;8207;52.494;4.654;2024-01-27T03:38:05;5.13;;;1.65;;
16199;SDS011;8207;52.494;4.654;2024-01-27T03:40:30;4.70;;;1.40;;
16199;SDS011;8207;52.494;4.654;2024-01-27T03:42:55;3.10;;;1.30;;
16199;SDS011;8207;52.494;4.654;2024-01-27T03:45:21;4.20;;;1.30;;
16199;SDS011;8207;52.494;4.654;2024-01-27T03:47:46;4.93;;;1.40;;
16199;SDS011;8207;52.494;4.654;2024-01-27T03:50:11;4.00;;;1.30;;
16199;SDS011;8207;52.494;4.654;2024-01-27T03:52:36;4.05;;;1.45;;
16199;SDS011;8207;52.494;4.654;2024-01-27T03:55:01;3.97;;;1.40;;
16199;SDS011;8207;52.494;4.654;2024-01-27T03:57:27;3.67;;;1.50;;
16199;SDS011;8207;52.494;4.654;2024-01-27T03:59:52;3.80;;;1.50;;
16199;SDS011;8207;52.494;4.654;2024-01-27T04:02:17;3.73;;;1.40;;
16199;SDS011;8207;52.494;4.654;2024-01-27T04:04:42;4.77;;;1.70;;
16199;SDS011;8207;52.494;4.654;2024-01-27T04:07:07;5.07;;;1.33;;
16199;SDS011;8207;52.494;4.654;2024-01-27T04:09:33;3.73;;;1.17;;
16199;SDS011;8207;52.494;4.654;2024-01-27T04:11:58;3.77;;;1.40;;
16199;SDS011;8207;52.494;4.654;2024-01-27T04:14:23;4.93;;;1.40;;
16199;SDS011;8207;52.494;4.654;2024-01-27T04:16:48;4.03;;;1.20;;
16199;SDS011;8207;52.494;4.654;2024-01-27T04:19:13;5.03;;;1.40;;
16199;SDS011;8207;52.494;4.654;2024-01-27T04:21:39;4.28;;;1.20;;
16199;SDS011;8207;52.494;4.654;2024-01-27T04:24:04;4.00;;;1.30;;
16199;SDS011;8207;52.494;4.654;2024-01-27T04:26:29;3.67;;;1.40;;
16199;SDS011;8207;52.494;4.654;2024-01-27T04:28:54;3.73;;;1.27;;
16199;SDS011;8207;52.494;4.654;2024-01-27T04:31:20;3.67;;;1.20;;
16199;SDS011;8207;52.494;4.654;2024-01-27T04:33:45;4.40;;;1.47;;
16199;SDS011;8207;52.494;4.654;2024-01-27T04:36:10;3.58;;;1.35;;
16199;SDS011;8207;52.494;4.654;2024-01-27T04:38:36;3.40;;;1.30;;
16199;SDS011;8207;52.494;4.654;2024-01-27T04:41:01;4.63;;;1.13;;
16199;SDS011;8207;52.494;4.654;2024-01-27T04:43:27;3.47;;;1.23;;
16199;SDS011;8207;52.494;4.654;2024-01-27T04:45:53;4.50;;;1.42;;
16199;SDS011;8207;52.494;4.654;2024-01-27T04:48:18;4.40;;;1.13;;
16199;SDS011;8207;52.494;4.654;2024-01-27T04:50:43;3.73;;;1.20;;
16199;SDS011;8207;52.494;4.654;2024-01-27T04:53:08;4.40;;;1.15;;
16199;SDS011;8207;52.494;4.654;2024-01-27T04:55:34;4.37;;;1.43;;
16199;SDS011;8207;52.494;4.654;2024-01-27T04:57:59;3.87;;;1.30;;
16199;SDS011;8207;52.494;4.654;2024-01-27T05:00:25;4.32;;;1.40;;
16199;SDS011;8207;52.494;4.654;2024-01-27T05:02:51;3.67;;;1.20;;
16199;SDS011;8207;52.494;4.654;2024-01-27T05:05:17;4.27;;;1.13;;
16199;SDS011;8207;52.494;4.654;2024-01-27T05:07:42;3.03;;;1.15;;
16199;SDS011;8207;52.494;4.654;2024-01-27T05:10:09;3.60;;;0.90;;
16199;SDS011;8207;52.494;4.654;2024-01-27T05:12:35;4.40;;;1.45;;
16199;SDS011;8207;52.494;4.654;2024-01-27T05:15:00;3.23;;;1.20;;
16199;SDS011;8207;52.494;4.654;2024-01-27T05:17:25;4.00;;;1.40;;
16199;SDS011;8207;52.494;4.654;2024-01-27T05:19:50;4.10;;;1.10;;
16199;SDS011;8207;52.494;4.654;2024-01-27T05:22:16;3.92;;;1.10;;
16199;SDS011;8207;52.494;4.654;2024-01-27T05:24:41;3.90;;;1.40;;
16199;SDS011;8207;52.494;4.654;2024-01-27T05:27:06;3.53;;;1.20;;
16199;SDS011;8207;52.494;4.654;2024-01-27T05:29:31;3.40;;;1.10;;
16199;SDS011;8207;52.494;4.654;2024-01-27T05:31:57;4.80;;;1.30;;
16199;SDS011;8207;52.494;4.654;2024-01-27T05:34:23;4.43;;;1.30;;
16199;SDS011;8207;52.494;4.654;2024-01-27T05:36:48;4.77;;;1.33;;
16199;SDS011;8207;52.494;4.654;2024-01-27T05:39:13;5.47;;;1.53;;
16199;SDS011;8207;52.494;4.654;2024-01-27T05:41:39;4.50;;;1.20;;
16199;SDS011;8207;52.494;4.654;2024-01-27T05:44:04;3.40;;;1.20;;
16199;SDS011;8207;52.494;4.654;2024-01-27T05:46:29;2.80;;;1.10;;
16199;SDS011;8207;52.494;4.654;2024-01-27T05:48:54;4.20;;;1.20;;
16199;SDS011;8207;52.494;4.654;2024-01-27T05:51:22;3.75;;;1.30;;
16199;SDS011;8207;52.494;4.654;2024-01-27T05:53:48;4.03;;;1.20;;
16199;SDS011;8207;52.494;4.654;2024-01-27T05:56:13;4.43;;;1.20;;
16199;SDS011;8207;52.494;4.654;2024-01-27T05:58:38;4.00;;;1.20;;
16199;SDS011;8207;52.494;4.654;2024-01-27T06:01:04;4.50;;;1.20;;
16199;SDS011;8207;52.494;4.654;2024-01-27T06:03:29;3.47;;;1.10;;
16199;SDS011;8207;52.494;4.654;2024-01-27T06:05:54;4.07;;;1.27;;
16199;SDS011;8207;52.494;4.654;2024-01-27T06:08:19;3.95;;;1.20;;
16199;SDS011;8207;52.494;4.654;2024-01-27T06:10:45;4.20;;;1.40;;
16199;SDS011;8207;52.494;4.654;2024-01-27T06:13:10;4.82;;;1.30;;
16199;SDS011;8207;52.494;4.654;2024-01-27T06:15:36;3.63;;;1.27;;
16199;SDS011;8207;52.494;4.654;2024-01-27T06:18:01;3.37;;;1.20;;
16199;SDS011;8207;52.494;4.654;2024-01-27T06:20:26;4.17;;;1.20;;
16199;SDS011;8207;52.494;4.654;2024-01-27T06:22:51;3.73;;;1.10;;
16199;SDS011;8207;52.494;4.654;2024-01-27T06:25:20;4.63;;;1.50;;
16199;SDS011;8207;52.494;4.654;2024-01-27T06:27:45;4.70;;;1.30;;
16199;SDS011;8207;52.494;4.654;2024-01-27T06:30:10;5.13;;;1.30;;
16199;SDS011;8207;52.494;4.654;2024-01-27T06:32:36;4.15;;;1.27;;
16199;SDS011;8207;52.494;4.654;2024-01-27T06:35:01;4.15;;;1.30;;
16199;SDS011;8207;52.494;4.654;2024-01-27T06:37:27;4.25;;;1.23;;
16199;SDS011;8207;52.494;4.654;2024-01-27T06:39:52;4.63;;;1.27;;
16199;SDS011;8207;52.494;4.654;2024-01-27T06:42:17;4.50;;;1.33;;
16199;SDS011;8207;52.494;4.654;2024-01-27T06:44:43;3.42;;;1.30;;
16199;SDS011;8207;52.494;4.654;2024-01-27T06:47:08;4.13;;;1.17;;
16199;SDS011;8207;52.494;4.654;2024-01-27T06:49:33;4.07;;;1.30;;
16199;SDS011;8207;52.494;4.654;2024-01-27T06:51:58;4.47;;;1.27;;
16199;SDS011;8207;52.494;4.654;2024-01-27T06:54:24;3.83;;;1.30;;
16199;SDS011;8207;52.494;4.654;2024-01-27T06:56:49;3.72;;;1.25;;
16199;SDS011;8207;52.494;4.654;2024-01-27T06:59:14;4.43;;;1.50;;
16199;SDS011;8207;52.494;4.654;2024-01-27T07:01:45;4.17;;;1.10;;
16199;SDS011;8207;52.494;4.654;2024-01-27T07:04:10;4.00;;;1.30;;
16199;SDS011;8207;52.494;4.654;2024-01-27T07:06:35;3.85;;;1.35;;
16199;SDS011;8207;52.494;4.654;2024-01-27T07:09:00;4.00;;;1.20;;
16199;SDS011;8207;52.494;4.654;2024-01-27T07:11:26;4.03;;;1.40;;
16199;SDS011;8207;52.494;4.654;2024-01-27T07:13:51;4.63;;;1.40;;
16199;SDS011;8207;52.494;4.654;2024-01-27T07:16:16;3.97;;;1.20;;
16199;SDS011;8207;52.494;4.654;2024-01-27T07:18:41;4.63;;;1.40;;
16199;SDS011;8207;52.494;4.654;2024-01-27T07:21:07;3.37;;;1.10;;
16199;SDS011;8207;52.494;4.654;2024-01-27T07:23:32;3.63;;;1.50;;
16199;SDS011;8207;52.494;4.654;2024-01-27T07:25:58;3.30;;;1.25;;
16199;SDS011;8207;52.494;4.654;2024-01-27T07:28:28;5.07;;;1.30;;
16199;SDS011;8207;52.494;4.654;2024-01-27T07:30:53;3.63;;;1.30;;
16199;SDS011;8207;52.494;4.654;2024-01-27T07:33:18;4.67;;;1.33;;
16199;SDS011;8207;52.494;4.654;2024-01-27T07:35:43;3.37;;;1.20;;
16199;SDS011;8207;52.494;4.654;2024-01-27T07:38:08;3.10;;;1.20;;
16199;SDS011;8207;52.494;4.654;2024-01-27T07:40:34;3.80;;;1.47;;
16199;SDS011;8207;52.494;4.654;2024-01-27T07:42:59;6.60;;;1.53;;
16199;SDS011;8207;52.494;4.654;2024-01-27T07:45:24;4.07;;;1.40;;
16199;SDS011;8207;52.494;4.654;2024-01-27T07:47:49;5.60;;;1.83;;
16199;SDS011;8207;52.494;4.654;2024-01-27T07:50:15;5.10;;;1.50;;
16199;SDS011;8207;52.494;4.654;2024-01-27T07:52:40;5.38;;;1.60;;
16199;SDS011;8207;52.494;4.654;2024-01-27T07:55:05;4.38;;;1.70;;
16199;SDS011;8207;52.494;4.654;2024-01-27T07:57:31;6.22;;;1.80;;
16199;SDS011;8207;52.494;4.654;2024-01-27T07:59:57;5.80;;;1.80;;
16199;SDS011;8207;52.494;4.654;2024-01-27T08:02:22;5.83;;;1.50;;
16199;SDS011;8207;52.494;4.654;2024-01-27T08:04:47;5.00;;;1.70;;
16199;SDS011;8207;52.494;4.654;2024-01-27T08:07:12;6.20;;;1.63;;
16199;SDS011;8207;52.494;4.654;2024-01-27T08:09:40;5.63;;;1.70;;
16199;SDS011;8207;52.494;4.654;2024-01-27T08:12:05;6.90;;;1.80;;
16199;SDS011;8207;52.494;4.654;2024-01-27T08:14:31;6.93;;;1.98;;
16199;SDS011;8207;52.494;4.654;2024-01-27T08:16:58;6.65;;;1.88;;
16199;SDS011;8207;52.494;4.654;2024-01-27T08:19:24;8.05;;;2.30;;
16199;SDS011;8207;52.494;4.654;2024-01-27T08:21:49;7.17;;;2.03;;
16199;SDS011;8207;52.494;4.654;2024-01-27T08:24:14;6.88;;;2.00;;
16199;SDS011;8207;52.494;4.654;2024-01-27T08:26:39;6.67;;;2.10;;
16199;SDS011;8207;52.494;4.654;2024-01-27T08:29:05;8.13;;;2.10;;
16199;SDS011;8207;52.494;4.654;2024-01-27T08:31:30;5.95;;;2.05;;
16199;SDS011;8207;52.494;4.654;2024-01-27T08:33:55;7.97;;;2.13;;
16199;SDS011;8207;52.494;4.654;2024-01-27T08:36:20;7.80;;;2.30;;
16199;SDS011;8207;52.494;4.654;2024-01-27T08:38:46;7.97;;;2.42;;
16199;SDS011;8207;52.494;4.654;2024-01-27T08:41:11;4.97;;;2.03;;
16199;SDS011;8207;52.494;4.654;2024-01-27T08:43:36;7.68;;;2.25;;
16199;SDS011;8207;52.494;4.654;2024-01-27T08:46:02;5.65;;;2.10;;
16199;SDS011;8207;52.494;4.654;2024-01-27T08:48:27;8.05;;;2.25;;
16199;SDS011;8207;52.494;4.654;2024-01-27T08:50:52;6.15;;;1.90;;
16199;SDS011;8207;52.494;4.654;2024-01-27T08:53:18;7.13;;;2.07;;
16199;SDS011;8207;52.494;4.654;2024-01-27T08:55:43;6.43;;;1.80;;
16199;SDS011;8207;52.494;4.654;2024-01-27T08:58:08;7.17;;;2.20;;
16199;SDS011;8207;52.494;4.654;2024-01-27T09:00:33;5.97;;;1.97;;
16199;SDS011;8207;52.494;4.654;2024-01-27T09:02:58;6.60;;;1.88;;
16199;SDS011;8207;52.494;4.654;2024-01-27T09:05:24;5.47;;;1.95;;
16199;SDS011;8207;52.494;4.654;2024-01-27T09:07:49;6.80;;;2.28;;
16199;SDS011;8207;52.494;4.654;2024-01-27T09:10:14;6.32;;;2.10;;
16199;SDS011;8207;52.494;4.654;2024-01-27T09:12:40;6.95;;;1.98;;
16199;SDS011;8207;52.494;4.654;2024-01-27T09:15:06;7.40;;;2.28;;
16199;SDS011;8207;52.494;4.654;2024-01-27T09:17:32;6.03;;;2.05;;
16199;SDS011;8207;52.494;4.654;2024-01-27T09:19:57;7.85;;;2.20;;
16199;SDS011;8207;52.494;4.654;2024-01-27T09:22:22;6.15;;;2.17;;
16199;SDS011;8207;52.494;4.654;2024-01-27T09:24:48;7.22;;;2.20;;
16199;SDS011;8207;52.494;4.654;2024-01-27T09:27:13;7.30;;;2.10;;
16199;SDS011;8207;52.494;4.654;2024-01-27T09:29:38;9.97;;;2.03;;
16199;SDS011;8207;52.494;4.654;2024-01-27T09:32:04;6.57;;;2.05;;
16199;SDS011;8207;52.494;4.654;2024-01-27T09:34:29;7.10;;;2.17;;
16199;SDS011;8207;52.494;4.654;2024-01-27T09:36:54;7.72;;;2.08;;
16199;SDS011;8207;52.494;4.654;2024-01-27T09:39:19;8.07;;;2.10;;
16199;SDS011;8207;52.494;4.654;2024-01-27T09:41:45;9.80;;;2.40;;
16199;SDS011;8207;52.494;4.654;2024-01-27T09:44:10;7.43;;;2.50;;
16199;SDS011;8207;52.494;4.654;2024-01-27T09:46:37;7.70;;;2.13;;
16199;SDS011;8207;52.494;4.654;2024-01-27T09:49:03;7.43;;;2.45;;
16199;SDS011;8207;52.494;4.654;2024-01-27T09:51:28;8.55;;;2.17;;
16199;SDS011;8207;52.494;4.654;2024-01-27T09:53:54;6.47;;;2.08;;
16199;SDS011;8207;52.494;4.654;2024-01-27T09:56:19;6.60;;;2.50;;
16199;SDS011;8207;52.494;4.654;2024-01-27T09:58:46;7.85;;;2.35;;
16199;SDS011;8207;52.494;4.654;2024-01-27T10:01:11;6.32;;;2.33;;
16199;SDS011;8207;52.494;4.654;2024-01-27T10:03:38;8.27;;;2.50;;
16199;SDS011;8207;52.494;4.654;2024-01-27T10:06:04;9.70;;;2.75;;
16199;SDS011;8207;52.494;4.654;2024-01-27T10:08:32;5.60;;;2.33;;
16199;SDS011;8207;52.494;4.654;2024-01-27T10:10:58;6.60;;;2.30;;
16199;SDS011;8207;52.494;4.654;2024-01-27T10:13:23;6.22;;;2.20;;
16199;SDS011;8207;52.494;4.654;2024-01-27T10:16:07;6.53;;;2.38;;
16199;SDS011;8207;52.494;4.654;2024-01-27T10:18:33;7.13;;;2.33;;
16199;SDS011;8207;52.494;4.654;2024-01-27T10:20:58;5.35;;;2.00;;
16199;SDS011;8207;52.494;4.654;2024-01-27T10:23:24;7.97;;;2.40;;
16199;SDS011;8207;52.494;4.654;2024-01-27T10:25:49;7.23;;;2.43;;
16199;SDS011;8207;52.494;4.654;2024-01-27T10:28:15;6.10;;;2.20;;
16199;SDS011;8207;52.494;4.654;2024-01-27T10:30:40;6.68;;;2.28;;
16199;SDS011;8207;52.494;4.654;2024-01-27T10:33:07;9.63;;;2.25;;
16199;SDS011;8207;52.494;4.654;2024-01-27T10:35:33;4.65;;;2.20;;
16199;SDS011;8207;52.494;4.654;2024-01-27T10:37:58;9.53;;;2.20;;
16199;SDS011;8207;52.494;4.654;2024-01-27T10:40:23;8.33;;;2.37;;
16199;SDS011;8207;52.494;4.654;2024-01-27T10:43:01;6.85;;;2.10;;
16199;SDS011;8207;52.494;4.654;2024-01-27T10:45:29;6.70;;;2.20;;
16199;SDS011;8207;52.494;4.654;2024-01-27T10:47:54;5.85;;;2.10;;
16199;SDS011;8207;52.494;4.654;2024-01-27T10:50:21;6.82;;;2.30;;
16199;SDS011;8207;52.494;4.654;2024-01-27T10:52:48;5.85;;;2.40;;
16199;SDS011;8207;52.494;4.654;2024-01-27T10:55:14;7.53;;;1.95;;
16199;SDS011;8207;52.494;4.654;2024-01-27T10:57:40;6.55;;;2.35;;
16199;SDS011;8207;52.494;4.654;2024-01-27T11:00:06;6.13;;;1.88;;
16199;SDS011;8207;52.494;4.654;2024-01-27T11:02:32;7.68;;;2.33;;
16199;SDS011;8207;52.494;4.654;2024-01-27T11:04:57;7.97;;;2.47;;
16199;SDS011;8207;52.494;4.654;2024-01-27T11:07:23;5.53;;;2.28;;
16199;SDS011;8207;52.494;4.654;2024-01-27T11:09:49;6.50;;;2.22;;
16199;SDS011;8207;52.494;4.654;2024-01-27T11:12:18;4.90;;;2.05;;
16199;SDS011;8207;52.494;4.654;2024-01-27T11:14:44;6.38;;;2.30;;
16199;SDS011;8207;52.494;4.654;2024-01-27T11:17:10;6.88;;;1.80;;
16199;SDS011;8207;52.494;4.654;2024-01-27T11:19:35;5.90;;;2.10;;
16199;SDS011;8207;52.494;4.654;2024-01-27T11:22:04;6.07;;;2.28;;
16199;SDS011;8207;52.494;4.654;2024-01-27T11:24:29;6.38;;;2.13;;
16199;SDS011;8207;52.494;4.654;2024-01-27T11:27:01;5.60;;;2.10;;
16199;SDS011;8207;52.494;4.654;2024-01-27T11:29:27;5.13;;;1.80;;
16199;SDS011;8207;52.494;4.654;2024-01-27T11:31:54;6.40;;;2.15;;
16199;SDS011;8207;52.494;4.654;2024-01-27T11:34:20;5.03;;;1.85;;
16199;SDS011;8207;52.494;4.654;2024-01-27T11:36:46;5.93;;;2.03;;
16199;SDS011;8207;52.494;4.654;2024-01-27T11:39:25;5.72;;;2.25;;
16199;SDS011;8207;52.494;4.654;2024-01-27T11:41:51;6.15;;;2.08;;
16199;SDS011;8207;52.494;4.654;2024-01-27T11:44:16;7.47;;;2.08;;
16199;SDS011;8207;52.494;4.654;2024-01-27T11:46:42;6.35;;;1.95;;
16199;SDS011;8207;52.494;4.654;2024-01-27T11:49:09;7.60;;;2.17;;
16199;SDS011;8207;52.494;4.654;2024-01-27T11:51:39;5.55;;;2.10;;
16199;SDS011;8207;52.494;4.654;2024-01-27T11:54:04;4.67;;;2.10;;
16199;SDS011;8207;52.494;4.654;2024-01-27T11:56:29;5.18;;;1.92;;
16199;SDS011;8207;52.494;4.654;2024-01-27T11:58:54;6.73;;;2.20;;
16199;SDS011;8207;52.494;4.654;2024-01-27T12:01:19;6.20;;;2.20;;
16199;SDS011;8207;52.494;4.654;2024-01-27T12:03:45;5.93;;;2.13;;
16199;SDS011;8207;52.494;4.654;2024-01-27T12:06:10;6.65;;;2.05;;
16199;SDS011;8207;52.494;4.654;2024-01-27T12:08:35;5.43;;;1.98;;
16199;SDS011;8207;52.494;4.654;2024-01-27T12:11:01;5.70;;;2.28;;
16199;SDS011;8207;52.494;4.654;2024-01-27T12:13:26;4.47;;;1.83;;
16199;SDS011;8207;52.494;4.654;2024-01-27T12:15:52;5.95;;;2.30;;
16199;SDS011;8207;52.494;4.654;2024-01-27T12:18:17;6.23;;;2.00;;
16199;SDS011;8207;52.494;4.654;2024-01-27T12:20:43;5.80;;;2.03;;
16199;SDS011;8207;52.494;4.654;2024-01-27T12:23:09;6.38;;;2.05;;
16199;SDS011;8207;52.494;4.654;2024-01-27T12:25:35;6.55;;;2.15;;
16199;SDS011;8207;52.494;4.654;2024-01-27T12:28:03;6.55;;;2.20;;
16199;SDS011;8207;52.494;4.654;2024-01-27T12:30:29;5.88;;;2.15;;
16199;SDS011;8207;52.494;4.654;2024-01-27T12:32:54;5.10;;;1.90;;
16199;SDS011;8207;52.494;4.654;2024-01-27T12:35:19;6.73;;;2.60;;
16199;SDS011;8207;52.494;4.654;2024-01-27T12:37:44;5.30;;;2.05;;
16199;SDS011;8207;52.494;4.654;2024-01-27T12:40:19;6.77;;;1.97;;
16199;SDS011;8207;52.494;4.654;2024-01-27T12:42:44;5.13;;;2.08;;
16199;SDS011;8207;52.494;4.654;2024-01-27T12:45:10;4.67;;;2.23;;
16199;SDS011;8207;52.494;4.654;2024-01-27T12:47:35;5.95;;;2.10;;
16199;SDS011;8207;52.494;4.654;2024-01-27T12:50:00;5.80;;;2.20;;
16199;SDS011;8207;52.494;4.654;2024-01-27T12:52:26;5.47;;;2.00;;
16199;SDS011;8207;52.494;4.654;2024-01-27T12:54:51;5.80;;;2.57;;
16199;SDS011;8207;52.494;4.654;2024-01-27T12:57:16;5.77;;;2.13;;
16199;SDS011;8207;52.494;4.654;2024-01-27T12:59:42;6.65;;;2.28;;
16199;SDS011;8207;52.494;4.654;2024-01-27T13:02:08;7.05;;;2.17;;
16199;SDS011;8207;52.494;4.654;2024-01-27T13:04:33;6.33;;;2.27;;
16199;SDS011;8207;52.494;4.654;2024-01-27T13:06:58;4.80;;;2.00;;
16199;SDS011;8207;52.494;4.654;2024-01-27T13:09:23;5.95;;;2.15;;
16199;SDS011;8207;52.494;4.654;2024-01-27T13:11:48;6.33;;;1.83;;
16199;SDS011;8207;52.494;4.654;2024-01-27T13:14:14;6.20;;;2.33;;
16199;SDS011;8207;52.494;4.654;2024-01-27T13:16:41;6.90;;;2.00;;
16199;SDS011;8207;52.494;4.654;2024-01-27T13:19:06;6.77;;;2.10;;
16199;SDS011;8207;52.494;4.654;2024-01-27T13:21:31;6.83;;;2.43;;
16199;SDS011;8207;52.494;4.654;2024-01-27T13:23:56;6.37;;;2.27;;
16199;SDS011;8207;52.494;4.654;2024-01-27T13:26:21;6.47;;;2.17;;
16199;SDS011;8207;52.494;4.654;2024-01-27T13:28:47;6.32;;;2.30;;
16199;SDS011;8207;52.494;4.654;2024-01-27T13:31:13;7.15;;;2.60;;
16199;SDS011;8207;52.494;4.654;2024-01-27T13:33:38;6.27;;;2.10;;
16199;SDS011;8207;52.494;4.654;2024-01-27T13:36:04;6.87;;;2.23;;
16199;SDS011;8207;52.494;4.654;2024-01-27T13:38:29;6.20;;;2.17;;
16199;SDS011;8207;52.494;4.654;2024-01-27T13:40:54;5.72;;;2.15;;
16199;SDS011;8207;52.494;4.654;2024-01-27T13:43:19;6.03;;;2.10;;
16199;SDS011;8207;52.494;4.654;2024-01-27T13:45:45;5.83;;;2.20;;
16199;SDS011;8207;52.494;4.654;2024-01-27T13:48:12;5.80;;;2.20;;
16199;SDS011;8207;52.494;4.654;2024-01-27T13:50:37;5.90;;;2.00;;
16199;SDS011;8207;52.494;4.654;2024-01-27T13:53:03;5.90;;;2.13;;
16199;SDS011;8207;52.494;4.654;2024-01-27T13:55:30;6.25;;;2.13;;
16199;SDS011;8207;52.494;4.654;2024-01-27T13:57:55;5.60;;;2.03;;
16199;SDS011;8207;52.494;4.654;2024-01-27T14:00:20;7.40;;;2.50;;
16199;SDS011;8207;52.494;4.654;2024-01-27T14:02:46;7.93;;;2.78;;
16199;SDS011;8207;52.494;4.654;2024-01-27T14:05:11;5.73;;;2.37;;
16199;SDS011;8207;52.494;4.654;2024-01-27T14:07:37;5.60;;;2.17;;
16199;SDS011;8207;52.494;4.654;2024-01-27T14:10:02;6.07;;;1.90;;
16199;SDS011;8207;52.494;4.654;2024-01-27T14:12:27;5.60;;;2.30;;
16199;SDS011;8207;52.494;4.654;2024-01-27T14:14:52;5.43;;;2.17;;
16199;SDS011;8207;52.494;4.654;2024-01-27T14:17:18;5.32;;;2.00;;
16199;SDS011;8207;52.494;4.654;2024-01-27T14:19:45;5.30;;;2.22;;
16199;SDS011;8207;52.494;4.654;2024-01-27T14:22:10;5.07;;;2.00;;
16199;SDS011;8207;52.494;4.654;2024-01-27T14:24:35;6.63;;;2.20;;
16199;SDS011;8207;52.494;4.654;2024-01-27T14:27:01;8.05;;;2.40;;
16199;SDS011;8207;52.494;4.654;2024-01-27T14:29:26;5.78;;;2.17;;
16199;SDS011;8207;52.494;4.654;2024-01-27T14:31:51;6.75;;;2.25;;
16199;SDS011;8207;52.494;4.654;2024-01-27T14:34:17;6.10;;;2.15;;
16199;SDS011;8207;52.494;4.654;2024-01-27T14:36:42;5.15;;;2.00;;
16199;SDS011;8207;52.494;4.654;2024-01-27T14:39:08;5.22;;;2.22;;
16199;SDS011;8207;52.494;4.654;2024-01-27T14:41:36;5.78;;;1.92;;
16199;SDS011;8207;52.494;4.654;2024-01-27T14:44:01;5.57;;;2.03;;
16199;SDS011;8207;52.494;4.654;2024-01-27T14:46:26;5.67;;;2.37;;
16199;SDS011;8207;52.494;4.654;2024-01-27T14:48:52;6.43;;;2.00;;
16199;SDS011;8207;52.494;4.654;2024-01-27T14:51:19;7.63;;;2.20;;